createdAt,value
2022-12-28T00:02:19.142Z,84.07
2022-12-28T00:04:48.786Z,84.06
2022-12-28T00:07:17.646Z,84.37
2022-12-28T00:09:45.989Z,84.20
2022-12-28T00:12:16.173Z,84.30
2022-12-28T00:14:45.970Z,84.60
2022-12-28T00:17:15.175Z,84.55
2022-12-28T00:19:45.589Z,84.44
2022-12-28T00:22:13.457Z,84.68
2022-12-28T00:24:41.262Z,84.47
2022-12-28T00:27:09.358Z,84.45
2022-12-28T00:29:37.709Z,84.46
2022-12-28T00:32:06.245Z,84.56
2022-12-28T00:34:36.664Z,84.45
2022-12-28T00:37:08.790Z,84.22
2022-12-28T00:39:42.572Z,84.24
2022-12-28T00:42:11.151Z,84.21
2022-12-28T00:44:39.223Z,84.18
2022-12-28T00:47:07.231Z,84.00
2022-12-28T00:49:37.973Z,84.01
2022-12-28T00:52:07.042Z,84.05
2022-12-28T00:54:35.722Z,84.00
2022-12-28T00:57:03.784Z,83.99
2022-12-28T00:59:32.021Z,83.94
2022-12-28T01:02:00.707Z,84.08
2022-12-28T01:04:28.803Z,84.06
2022-12-28T01:06:56.576Z,84.16
2022-12-28T01:09:24.672Z,84.15
2022-12-28T01:11:52.582Z,84.41
2022-12-28T01:14:20.349Z,84.27
2022-12-28T01:16:48.278Z,84.48
2022-12-28T01:19:21.268Z,84.80
2022-12-28T01:21:52.610Z,84.90
2022-12-28T01:24:21.122Z,85.17
2022-12-28T01:26:49.932Z,85.41
2022-12-28T01:29:17.620Z,85.60
2022-12-28T01:31:45.667Z,85.75
2022-12-28T01:34:14.116Z,85.85
2022-12-28T01:36:42.072Z,86.44
2022-12-28T01:39:11.151Z,86.73
2022-12-28T01:41:40.786Z,86.66
2022-12-28T01:44:08.814Z,87.27
2022-12-28T01:47:04.164Z,87.22
2022-12-28T01:49:49.796Z,87.40
2022-12-28T01:52:29.005Z,87.28
2022-12-28T01:55:04.799Z,87.34
2022-12-28T01:57:39.530Z,87.66
2022-12-28T02:00:11.882Z,87.72
2022-12-28T02:02:44.953Z,87.75
2022-12-28T02:05:14.158Z,87.65
2022-12-28T02:08:09.040Z,88.04
2022-12-28T02:10:41.792Z,88.14
2022-12-28T02:13:15.244Z,88.45
2022-12-28T02:15:45.215Z,88.29
2022-12-28T02:18:15.748Z,88.16
2022-12-28T02:21:06.015Z,88.21
2022-12-28T02:23:47.259Z,88.11
2022-12-28T02:26:44.290Z,88.26
2022-12-28T02:29:27.170Z,88.44
2022-12-28T02:32:17.040Z,88.39
2022-12-28T02:35:06.989Z,88.65
2022-12-28T02:37:52.365Z,88.50
2022-12-28T02:40:30.132Z,88.38
2022-12-28T02:42:58.318Z,88.43
2022-12-28T02:45:37.910Z,88.52
2022-12-28T02:48:08.911Z,88.50
2022-12-28T02:51:00.969Z,88.56
2022-12-28T02:53:41.354Z,88.34
2022-12-28T02:56:44.291Z,88.09
2022-12-28T02:59:26.008Z,88.08
2022-12-28T03:02:51.670Z,87.91
2022-12-28T03:05:28.951Z,88.15
2022-12-28T03:08:07.915Z,87.84
2022-12-28T03:10:50.231Z,88.02
2022-12-28T03:13:32.691Z,87.93
2022-12-28T03:16:05.385Z,87.85
2022-12-28T03:18:36.413Z,87.70
2022-12-28T03:21:09.065Z,87.95
2022-12-28T03:23:41.371Z,87.97
2022-12-28T03:26:13.975Z,87.82
2022-12-28T03:28:45.135Z,87.89
2022-12-28T03:31:21.849Z,88.17
2022-12-28T03:33:51.494Z,88.13
2022-12-28T03:36:29.505Z,88.23
2022-12-28T03:39:23.143Z,88.42
2022-12-28T03:42:14.477Z,88.53
2022-12-28T03:44:51.029Z,88.45
2022-12-28T03:47:21.580Z,88.36
2022-12-28T03:49:49.649Z,88.55
2022-12-28T03:52:19.150Z,88.54
2022-12-28T03:54:47.856Z,88.66
2022-12-28T03:57:16.708Z,88.85
2022-12-28T03:59:44.787Z,88.97
2022-12-28T04:02:14.426Z,88.85
2022-12-28T04:04:45.053Z,88.60
2022-12-28T04:07:13.279Z,88.73
2022-12-28T04:09:41.309Z,89.06
2022-12-28T04:12:10.149Z,89.03
2022-12-28T04:14:38.180Z,88.76
2022-12-28T04:17:06.696Z,88.93
2022-12-28T04:19:35.833Z,88.57
2022-12-28T04:22:04.299Z,88.61
2022-12-28T04:24:33.033Z,88.51
2022-12-28T04:27:01.744Z,88.40
2022-12-28T04:29:29.402Z,88.18
2022-12-28T04:31:57.135Z,88.27
2022-12-28T04:34:25.835Z,88.47
2022-12-28T04:36:54.465Z,88.49
2022-12-28T04:39:22.665Z,88.36
2022-12-28T04:41:52.261Z,88.67
2022-12-28T04:44:20.950Z,88.66
2022-12-28T04:46:48.788Z,88.68
2022-12-28T04:49:16.395Z,88.55
2022-12-28T04:51:44.961Z,88.69
2022-12-28T04:54:14.462Z,88.96
2022-12-28T04:56:42.248Z,88.79
2022-12-28T04:59:10.824Z,88.73
2022-12-28T05:01:40.001Z,88.71
2022-12-28T05:04:08.839Z,89.14
2022-12-28T05:06:37.087Z,89.02
2022-12-28T05:09:05.904Z,89.22
2022-12-28T05:11:33.673Z,89.12
2022-12-28T05:14:02.453Z,89.09
2022-12-28T05:16:30.112Z,88.84
2022-12-28T05:18:57.946Z,89.02
2022-12-28T05:21:28.264Z,89.09
2022-12-28T05:23:57.320Z,88.84
2022-12-28T05:26:28.677Z,88.77
2022-12-28T05:28:58.701Z,88.87
2022-12-28T05:31:28.486Z,88.92
2022-12-28T05:33:58.144Z,89.06
2022-12-28T05:36:28.325Z,89.16
2022-12-28T05:38:56.362Z,88.95
2022-12-28T05:41:28.825Z,89.13
2022-12-28T05:43:58.771Z,89.06
2022-12-28T05:46:31.357Z,89.11
2022-12-28T05:49:00.667Z,89.17
2022-12-28T05:51:31.306Z,89.40
2022-12-28T05:54:01.925Z,89.42
2022-12-28T05:56:31.991Z,89.48
2022-12-28T05:59:06.213Z,89.17
2022-12-28T06:01:38.696Z,89.28
2022-12-28T06:04:27.954Z,89.11
2022-12-28T06:06:57.290Z,88.80
2022-12-28T06:09:28.162Z,88.95
2022-12-28T06:11:56.775Z,88.83
2022-12-28T06:14:25.097Z,88.79
2022-12-28T06:16:53.269Z,88.72
2022-12-28T06:19:20.960Z,88.70
2022-12-28T06:21:49.631Z,88.79
2022-12-28T06:24:17.914Z,88.67
2022-12-28T06:26:46.988Z,88.82
2022-12-28T06:29:14.959Z,88.81
2022-12-28T06:31:47.087Z,88.58
2022-12-28T06:34:15.326Z,88.75
2022-12-28T06:36:45.507Z,88.63
2022-12-28T06:39:14.660Z,88.57
2022-12-28T06:41:42.855Z,88.65
2022-12-28T06:44:13.099Z,88.47
2022-12-28T06:46:41.129Z,88.29
2022-12-28T06:49:09.235Z,88.17
2022-12-28T06:51:39.104Z,88.16
2022-12-28T06:54:07.545Z,88.12
2022-12-28T06:56:37.702Z,87.98
2022-12-28T06:59:06.525Z,87.91
2022-12-28T07:01:39.209Z,87.92
2022-12-28T07:04:09.708Z,87.89
2022-12-28T07:06:43.677Z,87.87
2022-12-28T07:09:14.293Z,87.87
2022-12-28T07:11:44.004Z,87.80
2022-12-28T07:14:12.516Z,87.88
2022-12-28T07:19:08.353Z,87.92
2022-12-28T07:21:38.452Z,87.87
2022-12-28T07:24:08.008Z,87.67
2022-12-28T07:26:37.612Z,87.58
2022-12-28T07:29:07.628Z,87.29
2022-12-28T07:31:44.863Z,87.18
2022-12-28T07:34:15.831Z,87.09
2022-12-28T07:36:44.016Z,86.97
2022-12-28T07:39:12.036Z,86.73
2022-12-28T07:41:40.091Z,86.61
2022-12-28T07:44:08.404Z,86.31
2022-12-28T07:46:37.927Z,86.31
2022-12-28T07:49:06.718Z,86.24
2022-12-28T07:51:37.739Z,86.15
2022-12-28T07:54:06.484Z,86.16
2022-12-28T07:59:04.690Z,85.92
2022-12-28T08:01:34.154Z,85.92
2022-12-28T08:04:05.724Z,85.88
2022-12-28T08:06:37.016Z,85.68
2022-12-28T08:09:07.147Z,85.73
2022-12-28T08:11:38.780Z,85.36
2022-12-28T08:14:07.313Z,85.31
2022-12-28T08:16:38.074Z,85.01
2022-12-28T08:19:06.928Z,84.84
2022-12-28T08:21:37.807Z,84.96
2022-12-28T08:24:06.988Z,84.79
2022-12-28T08:26:38.697Z,84.57
2022-12-28T08:29:12.696Z,84.23
2022-12-28T08:31:43.420Z,84.14
2022-12-28T08:34:18.443Z,83.85
2022-12-28T08:36:47.465Z,83.46
2022-12-28T08:39:15.697Z,83.13
2022-12-28T08:41:43.919Z,83.13
2022-12-28T08:44:12.493Z,82.66
2022-12-28T08:46:40.560Z,82.64
2022-12-28T08:49:09.541Z,82.40
2022-12-28T08:51:40.371Z,82.20
2022-12-28T08:54:10.567Z,82.27
2022-12-28T08:56:40.731Z,81.80
2022-12-28T08:59:09.491Z,81.80
2022-12-28T09:01:44.052Z,81.62
2022-12-28T09:04:15.639Z,81.59
2022-12-28T09:06:44.665Z,81.51
2022-12-28T09:09:14.853Z,81.52
2022-12-28T09:11:44.223Z,81.27
2022-12-28T09:14:22.051Z,80.77
2022-12-28T09:16:55.229Z,80.86
2022-12-28T09:19:25.640Z,80.59
2022-12-28T09:21:54.407Z,80.32
2022-12-28T09:24:23.951Z,80.09
2022-12-28T09:26:52.101Z,79.54
2022-12-28T09:29:20.408Z,79.08
2022-12-28T09:31:49.716Z,78.85
2022-12-28T09:37:08.008Z,79.36
2022-12-28T09:39:35.735Z,79.03
2022-12-28T09:42:06.109Z,78.72
2022-12-28T09:44:40.331Z,78.37
2022-12-28T09:47:08.122Z,78.36
2022-12-28T09:49:56.417Z,78.06
2022-12-28T09:52:29.906Z,78.19
2022-12-28T09:55:07.096Z,78.13
2022-12-28T09:57:39.263Z,78.18
2022-12-28T10:00:15.979Z,77.65
2022-12-28T10:02:51.094Z,77.58
2022-12-28T10:05:21.639Z,77.76
2022-12-28T10:07:51.212Z,77.21
2022-12-28T10:10:22.045Z,77.08
2022-12-28T10:12:51.074Z,76.95
2022-12-28T10:15:20.111Z,76.32
2022-12-28T10:17:48.576Z,76.36
2022-12-28T10:20:19.332Z,75.73
2022-12-28T10:22:55.866Z,76.46
2022-12-28T10:25:25.912Z,76.20
2022-12-28T10:27:54.917Z,76.22
2022-12-28T10:30:27.390Z,75.68
2022-12-28T10:33:03.125Z,75.49
2022-12-28T10:35:51.168Z,75.49
2022-12-28T10:38:34.790Z,75.24
2022-12-28T10:41:10.527Z,74.92
2022-12-28T10:43:41.502Z,75.16
2022-12-28T10:46:18.024Z,75.34
2022-12-28T10:48:53.963Z,74.63
2022-12-28T10:51:27.291Z,74.73
2022-12-28T10:53:57.602Z,74.68
2022-12-28T10:56:29.343Z,74.03
2022-12-28T10:59:11.949Z,73.73
2022-12-28T11:01:43.541Z,73.67
2022-12-28T11:04:23.785Z,73.23
2022-12-28T11:07:02.098Z,73.40
2022-12-28T11:09:35.589Z,73.10
2022-12-28T11:12:18.358Z,73.09
2022-12-28T11:14:46.017Z,72.66
2022-12-28T11:17:25.960Z,71.89
2022-12-28T11:20:06.967Z,72.04
2022-12-28T11:22:34.621Z,71.86
2022-12-28T11:25:04.139Z,71.00
2022-12-28T11:27:32.015Z,71.36
2022-12-28T11:30:00.212Z,71.74
2022-12-28T11:32:36.305Z,70.58
2022-12-28T11:35:05.399Z,70.62
2022-12-28T11:37:33.243Z,70.03
2022-12-28T11:40:01.613Z,70.47
2022-12-28T11:42:41.516Z,70.59
2022-12-28T11:45:16.542Z,69.37
2022-12-28T11:47:44.611Z,68.90
2022-12-28T11:50:33.999Z,66.75
2022-12-28T11:53:10.577Z,66.97
2022-12-28T11:55:56.147Z,65.43
2022-12-28T11:58:46.217Z,63.62
2022-12-28T12:01:30.610Z,64.34
2022-12-28T12:03:58.252Z,64.47
2022-12-28T12:06:42.818Z,64.76
2022-12-28T12:09:21.312Z,62.53
2022-12-28T12:11:51.371Z,62.19
2022-12-28T12:14:27.159Z,63.32
2022-12-28T12:17:12.746Z,62.40
2022-12-28T12:19:49.523Z,62.52
2022-12-28T12:22:32.931Z,61.33
2022-12-28T12:25:29.844Z,61.54
2022-12-28T12:28:02.115Z,61.91
2022-12-28T12:30:32.104Z,61.22
2022-12-28T12:33:12.533Z,61.61
2022-12-28T12:36:01.210Z,60.79
2022-12-28T12:38:40.884Z,60.37
2022-12-28T12:41:33.363Z,59.49
2022-12-28T12:44:27.602Z,61.03
2022-12-28T12:47:07.575Z,60.59
2022-12-28T12:49:56.578Z,60.46
2022-12-28T12:52:58.782Z,60.53
2022-12-28T12:55:35.646Z,61.41
2022-12-28T12:58:20.536Z,61.65
2022-12-28T13:01:13.691Z,61.19
2022-12-28T13:03:49.225Z,61.44
2022-12-28T13:06:22.969Z,61.72
2022-12-28T13:09:04.757Z,62.09
2022-12-28T13:11:38.969Z,62.83
2022-12-28T13:14:13.052Z,62.64
2022-12-28T13:16:41.048Z,62.82
2022-12-28T13:19:19.715Z,63.03
2022-12-28T13:21:48.446Z,63.13
2022-12-28T13:24:29.085Z,64.18
2022-12-28T13:26:59.192Z,64.60
2022-12-28T13:29:39.680Z,64.60
2022-12-28T13:32:30.334Z,64.76
2022-12-28T13:35:00.729Z,64.95
2022-12-28T13:37:29.293Z,65.09
2022-12-28T13:40:17.551Z,64.93
2022-12-28T13:43:14.879Z,65.03
2022-12-28T13:45:50.965Z,64.35
2022-12-28T13:48:19.624Z,63.97
2022-12-28T13:50:48.064Z,63.99
2022-12-28T13:53:27.090Z,64.60
2022-12-28T13:55:59.759Z,64.25
2022-12-28T13:58:36.360Z,64.51
2022-12-28T14:01:09.591Z,65.11
2022-12-28T14:03:42.343Z,65.26
2022-12-28T14:06:22.388Z,65.25
2022-12-28T14:08:51.335Z,65.42
2022-12-28T14:11:19.619Z,65.40
2022-12-28T14:13:49.133Z,65.68
2022-12-28T14:16:17.407Z,65.79
2022-12-28T14:18:45.690Z,66.12
2022-12-28T14:21:13.839Z,66.31
2022-12-28T14:23:44.012Z,66.83
2022-12-28T14:26:22.755Z,66.93
2022-12-28T14:28:55.303Z,67.69
2022-12-28T14:31:32.009Z,67.89
2022-12-28T14:34:04.658Z,68.18
2022-12-28T14:36:47.922Z,68.49
2022-12-28T14:39:27.565Z,68.79
2022-12-28T14:41:57.333Z,69.14
2022-12-28T14:44:33.420Z,69.29
2022-12-28T14:47:04.099Z,69.70
2022-12-28T14:49:35.373Z,69.85
2022-12-28T14:52:09.279Z,69.61
2022-12-28T14:55:20.451Z,69.86
2022-12-28T14:57:51.539Z,69.91
2022-12-28T15:00:26.742Z,70.18
2022-12-28T15:02:56.223Z,70.58
2022-12-28T15:05:33.339Z,71.05
2022-12-28T15:08:01.955Z,71.07
2022-12-28T15:10:30.880Z,71.55
2022-12-28T15:12:58.621Z,71.90
2022-12-28T15:15:27.037Z,72.14
2022-12-28T15:17:55.311Z,72.51
2022-12-28T15:20:23.469Z,72.51
2022-12-28T15:22:51.727Z,72.80
2022-12-28T15:25:19.708Z,73.14
2022-12-28T15:27:51.964Z,73.39
2022-12-28T15:30:28.735Z,73.69
2022-12-28T15:32:57.166Z,73.93
2022-12-28T15:35:25.882Z,74.19
2022-12-28T15:37:54.414Z,74.32
2022-12-28T15:40:23.272Z,74.55
2022-12-28T15:42:51.368Z,74.74
2022-12-28T15:45:19.322Z,74.79
2022-12-28T15:47:47.700Z,75.18
2022-12-28T15:50:15.929Z,75.55
2022-12-28T15:52:44.138Z,75.78
2022-12-28T15:55:12.787Z,75.83
2022-12-28T15:57:40.668Z,75.91
2022-12-28T16:00:09.797Z,76.29
2022-12-28T16:02:38.340Z,76.39
2022-12-28T16:05:09.956Z,76.81
2022-12-28T16:07:38.509Z,76.68
2022-12-28T16:10:06.753Z,76.91
2022-12-28T16:12:35.937Z,76.92
2022-12-28T16:15:04.790Z,77.22
2022-12-28T16:17:32.933Z,77.36
2022-12-28T16:20:01.527Z,77.37
2022-12-28T16:22:29.759Z,77.96
2022-12-28T16:24:57.539Z,77.91
2022-12-28T16:27:25.476Z,78.04
2022-12-28T16:29:58.578Z,78.00
2022-12-28T16:32:27.676Z,78.27
2022-12-28T16:34:55.805Z,78.59
2022-12-28T16:37:24.966Z,78.49
2022-12-28T16:39:54.784Z,78.51
2022-12-28T16:42:23.526Z,78.74
2022-12-28T16:44:51.794Z,78.80
2022-12-28T16:47:20.173Z,78.59
2022-12-28T16:49:47.895Z,78.67
2022-12-28T16:52:16.208Z,78.38
2022-12-28T16:54:44.280Z,78.20
2022-12-28T16:57:12.839Z,78.16
2022-12-28T16:59:41.106Z,78.25
2022-12-28T17:02:13.482Z,78.15
2022-12-28T17:04:42.032Z,78.30
2022-12-28T17:07:10.177Z,78.14
2022-12-28T17:09:38.089Z,78.02
2022-12-28T17:12:06.530Z,78.18
2022-12-28T17:14:37.799Z,78.41
2022-12-28T17:17:06.408Z,78.72
2022-12-28T17:19:35.617Z,78.82
2022-12-28T17:22:04.625Z,78.55
2022-12-28T17:24:33.927Z,78.70
2022-12-28T17:27:07.792Z,78.51
2022-12-28T17:29:38.834Z,78.44
2022-12-28T17:32:07.567Z,78.27
2022-12-28T17:34:36.313Z,77.98
2022-12-28T17:37:04.590Z,77.70
2022-12-28T17:39:37.939Z,77.63
2022-12-28T17:42:08.942Z,77.44
2022-12-28T17:44:37.488Z,77.21
2022-12-28T17:47:05.937Z,77.25
2022-12-28T17:49:34.755Z,77.05
2022-12-28T17:52:03.371Z,77.10
2022-12-28T17:54:31.688Z,76.99
2022-12-28T17:56:59.825Z,77.20
2022-12-28T17:59:30.133Z,77.23
2022-12-28T18:01:58.162Z,77.35
2022-12-28T18:04:27.762Z,77.32
2022-12-28T18:06:55.853Z,76.90
2022-12-28T18:09:27.596Z,76.82
2022-12-28T18:11:56.690Z,76.55
2022-12-28T18:14:25.874Z,76.62
2022-12-28T18:16:56.195Z,76.79
2022-12-28T18:19:24.722Z,76.68
2022-12-28T18:21:53.050Z,76.66
2022-12-28T18:24:21.365Z,76.84
2022-12-28T18:26:50.666Z,76.87
2022-12-28T18:29:18.494Z,76.88
2022-12-28T18:31:46.542Z,77.18
2022-12-28T18:34:14.292Z,77.12
2022-12-28T18:36:43.637Z,77.11
2022-12-28T18:39:12.421Z,77.05
2022-12-28T18:41:41.598Z,76.95
2022-12-28T18:44:09.833Z,77.05
2022-12-28T18:46:38.425Z,76.78
2022-12-28T18:49:06.705Z,76.38
2022-12-28T18:51:34.821Z,76.21
2022-12-28T18:54:03.375Z,75.97
2022-12-28T18:56:31.337Z,75.64
2022-12-28T18:58:59.919Z,75.52
2022-12-28T19:04:17.737Z,75.17
2022-12-28T19:06:47.415Z,75.41
2022-12-28T19:09:15.605Z,75.28
2022-12-28T19:11:44.599Z,75.12
2022-12-28T19:14:14.614Z,75.12
2022-12-28T19:16:42.770Z,75.24
2022-12-28T19:19:11.563Z,75.11
2022-12-28T19:21:43.127Z,75.16
2022-12-28T19:24:18.959Z,75.10
2022-12-28T19:26:47.517Z,74.94
2022-12-28T19:29:18.053Z,75.00
2022-12-28T19:31:46.044Z,74.75
2022-12-28T19:34:15.075Z,74.74
2022-12-28T19:36:43.816Z,74.49
2022-12-28T19:39:12.898Z,74.23
2022-12-28T19:41:41.185Z,74.12
2022-12-28T19:44:09.343Z,73.75
2022-12-28T19:46:38.480Z,73.74
2022-12-28T19:49:06.463Z,73.67
2022-12-28T19:51:34.251Z,73.96
2022-12-28T19:54:02.072Z,73.90
2022-12-28T19:56:30.509Z,73.71
2022-12-28T19:59:06.420Z,73.56
2022-12-28T20:01:37.576Z,73.95
2022-12-28T20:04:13.493Z,74.11
2022-12-28T20:06:44.409Z,74.22
2022-12-28T20:09:14.627Z,74.31
2022-12-28T20:11:42.987Z,74.45
2022-12-28T20:14:19.110Z,74.80
2022-12-28T20:16:53.228Z,74.28
2022-12-28T20:19:21.367Z,74.62
2022-12-28T20:21:51.871Z,74.54
2022-12-28T20:24:20.056Z,74.25
2022-12-28T20:26:49.682Z,74.36
2022-12-28T20:29:17.443Z,74.72
2022-12-28T20:31:46.512Z,74.61
2022-12-28T20:34:14.227Z,74.66
2022-12-28T20:36:43.691Z,74.77
2022-12-28T20:39:12.084Z,74.66
2022-12-28T20:41:44.826Z,74.78
2022-12-28T20:44:22.616Z,74.56
2022-12-28T20:46:51.474Z,74.65
2022-12-28T20:49:21.197Z,74.92
2022-12-28T20:51:49.209Z,75.01
2022-12-28T20:54:20.545Z,74.87
2022-12-28T20:56:54.407Z,75.09
2022-12-28T20:59:25.469Z,75.00
2022-12-28T21:01:53.980Z,75.29
2022-12-28T21:04:24.331Z,75.13
2022-12-28T21:06:56.770Z,75.07
2022-12-28T21:09:25.425Z,75.08
2022-12-28T21:11:53.328Z,74.81
2022-12-28T21:14:22.723Z,74.70
2022-12-28T21:16:51.252Z,74.35
2022-12-28T21:19:18.989Z,74.34
2022-12-28T21:21:47.292Z,74.22
2022-12-28T21:24:15.366Z,74.30
2022-12-28T21:26:44.162Z,74.02
2022-12-28T21:29:12.013Z,74.02
2022-12-28T21:31:39.709Z,73.63
2022-12-28T21:34:07.626Z,73.82
2022-12-28T21:36:35.528Z,73.62
2022-12-28T21:39:03.809Z,73.79
2022-12-28T21:41:31.907Z,73.81
2022-12-28T21:43:59.693Z,74.06
2022-12-28T21:46:27.555Z,73.95
2022-12-28T21:48:55.588Z,74.03
2022-12-28T21:51:24.092Z,74.30
2022-12-28T21:53:53.066Z,74.48
2022-12-28T21:56:21.208Z,74.39
2022-12-28T21:58:51.350Z,74.21
2022-12-28T22:01:19.927Z,74.13
2022-12-28T22:03:47.976Z,73.95
2022-12-28T22:06:16.169Z,73.50
2022-12-28T22:08:44.174Z,73.62
2022-12-28T22:11:12.766Z,73.35
2022-12-28T22:13:40.630Z,72.87
2022-12-28T22:16:09.107Z,72.76
2022-12-28T22:19:00.980Z,72.58
2022-12-28T22:21:25.769Z,72.49
2022-12-28T22:23:54.625Z,72.31
2022-12-28T22:26:22.528Z,72.11
2022-12-28T22:28:53.813Z,72.06
2022-12-28T22:31:23.686Z,71.74
2022-12-28T22:33:53.405Z,71.14
2022-12-28T22:36:23.746Z,70.74
2022-12-28T22:38:52.091Z,70.51
2022-12-28T22:41:21.186Z,70.04
2022-12-28T22:43:50.387Z,69.93
2022-12-28T22:46:20.749Z,69.64
2022-12-28T22:48:49.624Z,69.65
2022-12-28T22:51:17.936Z,69.59
2022-12-28T22:53:46.473Z,69.28
2022-12-28T22:56:14.401Z,69.10
2022-12-28T22:58:42.579Z,68.85
2022-12-28T23:01:13.508Z,69.36
2022-12-28T23:03:43.738Z,69.23
2022-12-28T23:06:14.805Z,69.24
2022-12-28T23:08:42.940Z,69.45
2022-12-28T23:11:14.435Z,69.14
2022-12-28T23:13:42.751Z,68.75
2022-12-28T23:16:10.687Z,68.97
2022-12-28T23:18:40.895Z,68.88
2022-12-28T23:21:16.170Z,68.82
2022-12-28T23:23:44.193Z,68.98
2022-12-28T23:26:11.969Z,68.98
2022-12-28T23:28:39.617Z,68.78
2022-12-28T23:31:09.127Z,69.14
2022-12-28T23:33:37.008Z,68.56
2022-12-28T23:36:05.669Z,68.59
2022-12-28T23:38:35.529Z,68.46
2022-12-28T23:41:08.555Z,69.03
2022-12-28T23:43:36.672Z,68.71
2022-12-28T23:46:06.613Z,68.93
2022-12-28T23:48:34.940Z,69.26
2022-12-28T23:51:05.516Z,69.39
2022-12-28T23:53:33.467Z,69.51
2022-12-28T23:56:01.727Z,69.62
2022-12-28T23:58:29.700Z,69.81
